createdAt,value
2019-01-12T00:01:19.007Z,100146.88
2019-01-12T00:06:24.513Z,100149.67
2019-01-12T00:11:29.987Z,100148.67
2019-01-12T00:16:35.014Z,100152.24
2019-01-12T00:21:40.220Z,100153.49
2019-01-12T00:26:45.262Z,100161.32
2019-01-12T00:31:50.343Z,100153.86
2019-01-12T00:36:55.433Z,100168.64
2019-01-12T00:42:00.402Z,100157.19
2019-01-12T00:47:05.472Z,100163.48
2019-01-12T00:52:10.534Z,100172.63
2019-01-12T00:57:15.516Z,100183.50
2019-01-12T01:02:20.550Z,100178.59
2019-01-12T01:07:25.648Z,100192.61
2019-01-12T01:12:30.702Z,100192.42
2019-01-12T01:17:36.092Z,100202.06
2019-01-12T01:22:41.143Z,100202.66
2019-01-12T01:27:46.606Z,100208.99
2019-01-12T01:32:51.665Z,100206.29
2019-01-12T01:37:56.728Z,100209.73
2019-01-12T01:43:01.726Z,100214.33
2019-01-12T01:48:06.704Z,100206.92
2019-01-12T01:53:11.797Z,100214.92
2019-01-12T01:58:19.028Z,100204.23
2019-01-12T02:03:28.087Z,100206.43
2019-01-12T02:08:33.504Z,100208.88
2019-01-12T02:13:40.846Z,100209.06
2019-01-12T02:18:47.014Z,100218.41
2019-01-12T02:23:53.572Z,100221.29
2019-01-12T02:28:58.860Z,100218.27
2019-01-12T02:34:05.802Z,100215.78
2019-01-12T02:39:10.900Z,100214.36
2019-01-12T02:44:15.944Z,100214.64
2019-01-12T02:49:20.959Z,100217.14
2019-01-12T02:54:26.178Z,100211.23
2019-01-12T02:59:32.552Z,100208.17
2019-01-12T03:04:37.647Z,100212.02
2019-01-12T03:09:42.664Z,100207.25
2019-01-12T03:14:47.827Z,100210.16
2019-01-12T03:19:53.499Z,100205.90
2019-01-12T03:25:01.511Z,100206.58
2019-01-12T03:30:09.710Z,100204.55
2019-01-12T03:35:15.691Z,100205.44
2019-01-12T03:40:23.973Z,100201.52
2019-01-12T03:45:29.144Z,100199.39
2019-01-12T03:50:34.283Z,100198.27
2019-01-12T03:55:39.303Z,100192.38
2019-01-12T04:00:44.345Z,100188.70
2019-01-12T04:05:49.361Z,100186.58
2019-01-12T04:10:54.419Z,100171.54
2019-01-12T04:15:59.620Z,100174.32
2019-01-12T04:21:05.008Z,100173.11
2019-01-12T04:26:10.076Z,100181.78
2019-01-12T04:31:15.595Z,100180.81
2019-01-12T04:36:22.744Z,100175.20
2019-01-12T04:41:30.624Z,100175.70
2019-01-12T04:46:38.779Z,100176.55
2019-01-12T04:51:44.094Z,100170.31
2019-01-12T04:56:49.055Z,100167.94
2019-01-12T05:01:54.399Z,100157.69
2019-01-12T05:06:59.397Z,100158.95
2019-01-12T05:12:04.468Z,100166.15
2019-01-12T05:17:09.470Z,100164.61
2019-01-12T05:22:14.784Z,100170.81
2019-01-12T05:27:19.832Z,100172.16
2019-01-12T05:32:24.931Z,100176.36
2019-01-12T05:37:29.916Z,100177.14
2019-01-12T05:42:35.387Z,100174.28
2019-01-12T05:47:40.446Z,100177.64
2019-01-12T05:52:48.157Z,100180.02
2019-01-12T05:57:53.738Z,100181.62
2019-01-12T06:02:59.099Z,100182.63
2019-01-12T06:08:04.281Z,100175.77
2019-01-12T06:13:09.339Z,100176.48
2019-01-12T06:18:14.695Z,100182.34
2019-01-12T06:23:19.691Z,100179.12
2019-01-12T06:28:24.982Z,100191.53
2019-01-12T06:33:29.955Z,100187.61
2019-01-12T06:38:34.943Z,100184.73
2019-01-12T06:43:39.959Z,100186.77
2019-01-12T06:48:45.001Z,100195.51
2019-01-12T06:53:50.023Z,100184.70
2019-01-12T06:58:55.041Z,100195.06
2019-01-12T07:04:00.190Z,100199.08
2019-01-12T07:09:08.497Z,100201.48
2019-01-12T07:14:13.523Z,100206.41
2019-01-12T07:19:18.575Z,100206.81
2019-01-12T07:24:23.673Z,100201.80
2019-01-12T07:29:29.415Z,100203.42
2019-01-12T07:34:34.439Z,100202.92
2019-01-12T07:39:39.579Z,100208.91
2019-01-12T07:44:44.657Z,100205.66
2019-01-12T07:49:50.059Z,100205.72
2019-01-12T07:54:55.186Z,100211.23
2019-01-12T08:00:02.061Z,100205.34
2019-01-12T08:05:08.629Z,100209.80
2019-01-12T08:10:16.875Z,100199.36
2019-01-12T08:15:21.923Z,100200.11
2019-01-12T08:20:27.022Z,100188.73
2019-01-12T08:25:32.117Z,100194.28
2019-01-12T08:30:37.183Z,100184.09
2019-01-12T08:35:43.267Z,100186.55
2019-01-12T08:40:50.387Z,100181.84
2019-01-12T08:45:55.319Z,100180.03
2019-01-12T08:51:00.342Z,100179.97
2019-01-12T08:56:05.651Z,100169.75
2019-01-12T09:01:11.809Z,100171.31
2019-01-12T09:06:16.912Z,100165.14
2019-01-12T09:11:21.995Z,100153.31
2019-01-12T09:16:27.022Z,100154.58
2019-01-12T09:21:32.070Z,100152.93
2019-01-12T09:26:37.201Z,100152.87
2019-01-12T09:31:42.313Z,100140.19
2019-01-12T09:36:47.691Z,100133.83
2019-01-12T09:41:53.525Z,100125.71
2019-01-12T09:46:58.605Z,100130.06
2019-01-12T09:52:03.993Z,100116.69
2019-01-12T09:57:09.001Z,100131.14
2019-01-12T10:02:14.027Z,100112.52
2019-01-12T10:07:19.103Z,100105.69
2019-01-12T10:12:24.278Z,100101.20
2019-01-12T10:17:29.333Z,100084.69
2019-01-12T10:22:34.447Z,100089.97
2019-01-12T10:27:39.522Z,100074.36
2019-01-12T10:32:45.155Z,100074.59
2019-01-12T10:37:53.896Z,100069.61
2019-01-12T10:42:59.167Z,100056.77
2019-01-12T10:48:04.299Z,100037.20
2019-01-12T10:53:09.903Z,100041.14
2019-01-12T10:58:15.188Z,100031.86
2019-01-12T11:03:20.381Z,100024.25
2019-01-12T11:08:25.663Z,100018.97
2019-01-12T11:13:31.345Z,100017.91
2019-01-12T11:18:36.575Z,100009.48
2019-01-12T11:23:41.887Z,99995.66
2019-01-12T11:28:46.977Z,99989.34
2019-01-12T11:33:52.032Z,99980.33
2019-01-12T11:38:57.256Z,99972.41
2019-01-12T11:44:02.465Z,99961.85
2019-01-12T11:49:07.610Z,99932.85
2019-01-12T11:54:12.805Z,99914.18
2019-01-12T11:59:17.912Z,99921.39
2019-01-12T12:04:24.101Z,99892.36
2019-01-12T12:09:29.233Z,99884.69
2019-01-12T12:14:34.625Z,99874.36
2019-01-12T12:19:41.329Z,99856.70
2019-01-12T12:24:51.015Z,99851.17
2019-01-12T12:29:56.727Z,99840.09
2019-01-12T12:35:02.534Z,99818.75
2019-01-12T12:40:10.924Z,99812.66
2019-01-12T12:45:19.868Z,99808.98
2019-01-12T12:50:26.816Z,99797.66
2019-01-12T12:55:32.007Z,99795.25
2019-01-12T13:00:37.504Z,99794.47
2019-01-12T13:05:42.841Z,99779.18
2019-01-12T13:10:47.921Z,99779.96
2019-01-12T13:15:52.937Z,99771.50
2019-01-12T13:20:57.915Z,99760.45
2019-01-12T13:26:03.237Z,99746.45
2019-01-12T13:31:08.478Z,99749.36
2019-01-12T13:36:13.746Z,99730.12
2019-01-12T13:41:18.971Z,99724.85
2019-01-12T13:46:24.657Z,99698.76
2019-01-12T13:51:33.425Z,99700.58
2019-01-12T13:56:39.075Z,99671.34
2019-01-12T14:01:44.851Z,99691.35
2019-01-12T14:06:50.501Z,99683.98
2019-01-12T14:11:58.493Z,99681.08
2019-01-12T14:17:06.786Z,99670.80
2019-01-12T14:22:12.941Z,99678.97
2019-01-12T14:27:18.881Z,99670.00
2019-01-12T14:32:24.330Z,99656.81
2019-01-12T14:37:30.787Z,99658.89
2019-01-12T14:42:37.262Z,99644.38
2019-01-12T14:47:46.006Z,99623.56
2019-01-12T14:52:53.428Z,99615.94
2019-01-12T14:58:08.709Z,99615.40
2019-01-12T15:03:13.919Z,99594.86
2019-01-12T15:08:27.965Z,99596.44
2019-01-12T15:13:34.468Z,99580.88
2019-01-12T15:18:40.940Z,99575.09
2019-01-12T15:23:49.344Z,99569.83
2019-01-12T15:29:00.907Z,99561.39
2019-01-12T15:34:06.110Z,99554.81
2019-01-12T15:39:16.608Z,99540.33
2019-01-12T15:44:25.799Z,99533.75
2019-01-12T15:49:38.347Z,99525.08
2019-01-12T15:54:47.459Z,99526.91
2019-01-12T15:59:57.940Z,99520.86
2019-01-12T16:05:07.663Z,99509.28
2019-01-12T16:10:49.201Z,99507.42
2019-01-12T16:16:01.344Z,99492.44
2019-01-12T16:21:12.984Z,99484.01
2019-01-12T16:26:19.435Z,99465.31
2019-01-12T16:31:30.624Z,99474.25
2019-01-12T16:36:39.741Z,99462.17
2019-01-12T16:41:47.118Z,99450.33
2019-01-12T16:46:53.268Z,99447.69
2019-01-12T16:52:02.785Z,99436.89
2019-01-12T16:57:07.895Z,99431.63
2019-01-12T17:02:14.801Z,99413.19
2019-01-12T17:07:28.905Z,99418.44
2019-01-12T17:12:44.307Z,99421.34
2019-01-12T17:18:04.251Z,99409.23
2019-01-12T17:23:15.787Z,99411.59
2019-01-12T17:28:24.089Z,99395.27
2019-01-12T17:33:33.716Z,99395.26
2019-01-12T17:38:39.967Z,99395.03
2019-01-12T17:43:45.572Z,99377.64
2019-01-12T17:48:51.315Z,99377.10
2019-01-12T17:53:58.133Z,99373.69
2019-01-12T17:59:04.137Z,99363.94
2019-01-12T18:04:13.875Z,99369.19
2019-01-12T18:09:34.260Z,99367.88
2019-01-12T18:14:40.914Z,99366.84
2019-01-12T18:19:46.381Z,99374.73
2019-01-12T18:24:51.985Z,99377.89
2019-01-12T18:30:07.965Z,99382.36
2019-01-12T18:35:13.371Z,99376.81
2019-01-12T18:40:19.874Z,99372.64
2019-01-12T18:45:25.423Z,99368.94
2019-01-12T18:50:31.738Z,99373.42
2019-01-12T18:55:38.441Z,99368.14
2019-01-12T19:00:44.002Z,99375.22
2019-01-12T19:06:26.330Z,99370.77
2019-01-12T19:18:15.637Z,99362.09
2019-01-12T19:23:35.978Z,99359.19
2019-01-12T19:28:56.053Z,99358.09
2019-01-12T19:34:10.624Z,99351.55
2019-01-12T19:39:22.529Z,99357.62
2019-01-12T19:44:29.724Z,99343.69
2019-01-12T19:49:35.620Z,99338.41
2019-01-12T19:54:40.938Z,99329.95
2019-01-12T19:59:46.197Z,99334.20
2019-01-12T20:04:51.565Z,99331.29
2019-01-12T20:09:59.263Z,99338.64
2019-01-12T20:15:10.367Z,99333.14
2019-01-12T20:20:21.116Z,99332.31
2019-01-12T20:25:31.938Z,99333.64
2019-01-12T20:31:17.730Z,99326.80
2019-01-12T20:37:13.570Z,99323.92
2019-01-12T20:43:03.277Z,99311.55
2019-01-12T20:48:38.732Z,99301.03
2019-01-12T20:54:16.344Z,99298.13
2019-01-12T21:00:02.278Z,99289.70
2019-01-12T21:05:58.570Z,99282.57
2019-01-12T21:11:51.156Z,99281.55
2019-01-12T21:17:10.483Z,99282.04
2019-01-12T21:22:20.417Z,99269.13
2019-01-12T21:27:40.204Z,99265.19
2019-01-12T21:32:50.724Z,99258.11
2019-01-12T21:38:08.340Z,99250.98
2019-01-12T21:43:15.520Z,99242.55
2019-01-12T21:48:22.062Z,99240.70
2019-01-12T21:53:27.465Z,99229.63
2019-01-12T21:58:34.648Z,99240.16
2019-01-12T22:03:40.070Z,99236.73
2019-01-12T22:08:51.251Z,99238.33
2019-01-12T22:13:57.029Z,99242.27
2019-01-12T22:19:02.559Z,99222.78
2019-01-12T22:24:07.944Z,99216.20
2019-01-12T22:29:16.058Z,99222.02
2019-01-12T22:34:24.742Z,99220.68
2019-01-12T22:39:38.388Z,99214.63
2019-01-12T22:44:44.651Z,99223.31
2019-01-12T22:49:49.886Z,99212.50
2019-01-12T22:54:57.937Z,99216.45
2019-01-12T23:00:07.384Z,99223.06
2019-01-12T23:05:14.016Z,99220.14
2019-01-12T23:10:20.048Z,99213.84
2019-01-12T23:15:26.455Z,99216.70
2019-01-12T23:20:33.988Z,99214.05
2019-01-12T23:25:41.005Z,99212.70
2019-01-12T23:30:46.164Z,99213.45
2019-01-12T23:35:53.742Z,99205.52
2019-01-12T23:40:58.970Z,99206.75
2019-01-12T23:46:06.940Z,99196.42
2019-01-12T23:51:13.492Z,99202.80
2019-01-12T23:56:28.868Z,99198.09
